Time;durP1;ratioP1;P1;durP2;ratioP2;P2;SDS_P1;SDS_P2;PMS_P1;PMS_P2;Temp;Humidity;BMP_temperature;BMP_pressure;BME280_temperature;BME280_humidity;BME280_pressure;Samples;Min_cycle;Max_cycle;Signal;HPM_P1;HPM_P2
2023/10/24 00:03:35;;;;;;;24.40;13.00;;;;;;;10.37;71.42;98819.56;234701;212;140640;-60
2023/10/24 00:08:38;;;;;;;23.50;12.70;;;;;;;10.34;71.39;98816.73;234541;214;138271;-60
2023/10/24 00:13:41;;;;;;;20.20;11.50;;;;;;;10.32;71.38;98809.64;234471;214;146864;-60
2023/10/24 00:18:44;;;;;;;19.90;11.20;;;;;;;10.28;71.29;98805.78;234613;214;139232;-60
2023/10/24 00:23:47;;;;;;;20.20;11.40;;;;;;;10.30;71.62;98808.52;234584;215;138447;-58
2023/10/24 00:28:50;;;;;;;19.90;11.80;;;;;;;10.36;71.57;98806.51;234461;214;148023;-62
2023/10/24 00:33:54;;;;;;;19.10;12.20;;;;;;;10.36;71.45;98801.02;234581;214;138870;-61
2023/10/24 00:38:57;;;;;;;21.20;11.30;;;;;;;10.31;71.56;98794.95;234439;215;138052;-59
2023/10/24 00:44:00;;;;;;;21.00;11.70;;;;;;;10.28;71.64;98792.17;234437;215;147173;-56
2023/10/24 00:49:04;;;;;;;21.10;12.00;;;;;;;10.25;71.85;98790.16;234486;214;139041;-61
2023/10/24 00:54:09;;;;;;;22.80;12.60;;;;;;;10.23;71.81;98785.92;234618;214;141147;-59
2023/10/24 00:59:13;;;;;;;22.20;12.60;;;;;;;10.18;71.91;98781.23;234554;215;148557;-60
2023/10/24 01:04:18;;;;;;;22.00;12.40;;;;;;;10.13;71.98;98775.52;234680;214;140520;-60
2023/10/24 01:09:21;;;;;;;19.40;12.10;;;;;;;10.12;72.27;98771.89;234426;215;138364;-56
2023/10/24 01:14:25;;;;;;;23.30;12.80;;;;;;;10.19;72.76;98771.95;234505;215;149972;-59
2023/10/24 01:19:28;;;;;;;23.00;13.00;;;;;;;10.30;72.90;98767.20;234492;215;139559;-61
2023/10/24 01:24:32;;;;;;;20.50;12.90;;;;;;;10.34;72.59;98764.95;234008;215;137913;-61
2023/10/24 01:29:35;;;;;;;23.20;12.60;;;;;;;10.31;72.40;98763.73;234585;214;148812;-62
2023/10/24 01:34:38;;;;;;;26.10;13.10;;;;;;;10.26;72.68;98756.80;234444;215;139327;-60
2023/10/24 01:39:42;;;;;;;22.60;12.80;;;;;;;10.22;73.04;98749.61;234430;215;138394;-59
2023/10/24 01:44:45;;;;;;;23.00;13.30;;;;;;;10.20;72.85;98758.41;234562;214;147837;-62
2023/10/24 01:49:49;;;;;;;24.60;12.90;;;;;;;10.14;72.86;98769.63;234467;215;138662;-61
2023/10/24 01:54:52;;;;;;;20.20;11.40;;;;;;;10.15;72.89;98766.38;234587;215;138956;-61
2023/10/24 01:59:55;;;;;;;26.10;11.70;;;;;;;10.20;72.75;98767.25;234743;215;147330;-59
2023/10/24 02:04:58;;;;;;;18.00;11.50;;;;;;;10.21;72.63;98758.69;234488;214;138960;-61
2023/10/24 02:10:03;;;;;;;22.00;12.00;;;;;;;10.22;72.58;98752.77;234420;215;137445;-60
2023/10/24 02:15:07;;;;;;;22.80;12.30;;;;;;;10.18;72.26;98750.02;234529;215;146674;-60
2023/10/24 02:20:10;;;;;;;21.20;11.30;;;;;;;10.12;72.39;98750.79;234409;214;139496;-60
2023/10/24 02:25:14;;;;;;;21.00;11.30;;;;;;;10.07;72.47;98746.33;234485;215;138159;-61
2023/10/24 02:30:17;;;;;;;30.30;12.00;;;;;;;10.04;72.81;98742.13;234452;215;148229;-58
2023/10/24 02:35:20;;;;;;;30.00;11.40;;;;;;;10.01;73.01;98725.64;234590;215;139450;-61
2023/10/24 02:40:23;;;;;;;28.20;11.10;;;;;;;9.99;73.15;98720.41;234588;215;137986;-58
2023/10/24 02:45:27;;;;;;;27.70;11.20;;;;;;;10.03;73.30;98723.17;234561;214;148149;-60
2023/10/24 02:50:30;;;;;;;22.60;11.30;;;;;;;10.10;73.02;98722.88;234501;215;139745;-62
2023/10/24 02:55:33;;;;;;;21.20;10.80;;;;;;;10.11;72.95;98718.92;234308;214;137047;-61
2023/10/24 03:00:37;;;;;;;17.70;10.70;;;;;;;10.09;72.75;98722.27;234561;214;148059;-61
2023/10/24 03:05:40;;;;;;;18.30;10.30;;;;;;;10.07;72.83;98714.94;234620;215;139475;-61
2023/10/24 03:10:43;;;;;;;23.40;10.80;;;;;;;10.07;73.06;98717.09;234511;214;138066;-59
2023/10/24 03:15:47;;;;;;;20.00;10.90;;;;;;;10.06;73.08;98722.61;234510;214;147806;-59
2023/10/24 03:20:49;;;;;;;17.90;10.10;;;;;;;10.04;73.31;98701.48;234528;215;138771;-60
2023/10/24 03:25:53;;;;;;;16.00;10.40;;;;;;;10.08;73.64;98690.77;234539;214;137944;-61
2023/10/24 03:31:03;;;;;;;17.50;10.40;;;;;;;10.18;73.23;98692.23;234449;215;147409;-58
2023/10/24 03:36:12;;;;;;;18.40;10.60;;;;;;;10.20;72.89;98694.97;234584;214;138825;-59
2023/10/24 03:41:15;;;;;;;16.10;11.20;;;;;;;10.19;72.87;98687.20;234598;214;138994;-60
2023/10/24 03:46:19;;;;;;;20.50;11.20;;;;;;;10.21;72.91;98684.12;234482;215;147754;-61
2023/10/24 03:51:22;;;;;;;19.20;11.60;;;;;;;10.21;73.07;98685.30;234596;214;138867;-61
2023/10/24 03:56:26;;;;;;;21.70;11.10;;;;;;;10.19;73.18;98685.97;234508;215;138029;-60
2023/10/24 04:01:30;;;;;;;20.20;12.00;;;;;;;10.18;73.42;98681.77;234256;214;149688;-60
2023/10/24 04:06:36;;;;;;;17.60;10.90;;;;;;;10.17;73.69;98679.74;234497;215;139531;-61
2023/10/24 04:11:39;;;;;;;18.00;10.70;;;;;;;10.18;73.76;98672.70;234629;215;138741;-58
2023/10/24 04:16:42;;;;;;;18.20;10.60;;;;;;;10.27;73.75;98666.52;234642;214;147258;-62
2023/10/24 04:21:45;;;;;;;18.10;10.60;;;;;;;10.34;73.78;98653.95;234447;214;139280;-61
2023/10/24 04:26:48;;;;;;;17.10;11.50;;;;;;;10.43;73.47;98654.09;234497;214;137767;-60
2023/10/24 04:31:52;;;;;;;17.20;11.20;;;;;;;10.42;73.03;98666.55;234487;215;148334;-52
2023/10/24 04:36:55;;;;;;;46.30;35.80;;;;;;;10.36;74.26;98669.80;234356;214;141547;-55
2023/10/24 04:42:00;;;;;;;167.80;126.70;;;;;;;10.55;73.91;98678.77;234423;214;137886;-55
2023/10/24 04:47:03;;;;;;;20.70;14.40;;;;;;;10.41;73.08;98670.02;234545;215;147704;-54
2023/10/24 04:52:07;;;;;;;58.50;44.60;;;;;;;10.33;73.38;98661.51;234383;214;139856;-51
2023/10/24 04:57:11;;;;;;;37.10;28.40;;;;;;;10.36;73.47;98663.60;234199;214;139137;-50
2023/10/24 05:02:14;;;;;;;16.40;11.60;;;;;;;10.43;73.66;98653.93;234451;214;148184;-53
2023/10/24 05:07:17;;;;;;;20.30;11.80;;;;;;;10.42;72.88;98648.66;234089;214;139482;-53
2023/10/24 05:12:20;;;;;;;21.30;12.00;;;;;;;10.36;73.08;98638.80;234465;214;138158;-52
2023/10/24 05:17:23;;;;;;;21.00;12.40;;;;;;;10.31;72.93;98641.75;234604;214;147529;-54
2023/10/24 05:22:27;;;;;;;19.60;11.60;;;;;;;10.22;72.64;98643.45;234469;214;139887;-49
2023/10/24 05:27:31;;;;;;;18.50;12.40;;;;;;;10.13;72.79;98640.27;234382;215;137324;-52
2023/10/24 05:32:35;;;;;;;19.20;12.50;;;;;;;10.05;72.95;98651.11;234472;213;148330;-50
2023/10/24 05:37:38;;;;;;;26.10;12.10;;;;;;;10.02;73.30;98641.02;234169;214;139012;-52
2023/10/24 05:42:41;;;;;;;21.90;12.30;;;;;;;10.01;73.50;98654.56;234503;214;139204;-50
2023/10/24 05:47:45;;;;;;;33.10;13.50;;;;;;;10.12;73.75;98677.23;234716;215;148279;-55
2023/10/24 05:52:49;;;;;;;109.90;78.60;;;;;;;10.27;74.16;98693.93;234464;214;140423;-54
2023/10/24 05:57:52;;;;;;;32.20;17.90;;;;;;;10.43;73.87;98683.90;234474;215;138144;-53
2023/10/24 06:02:56;;;;;;;36.20;14.30;;;;;;;10.51;73.88;98678.92;234510;215;148394;-55
2023/10/24 06:07:59;;;;;;;32.80;14.20;;;;;;;10.46;73.28;98682.61;234434;215;139303;-52
2023/10/24 06:13:03;;;;;;;98.40;76.00;;;;;;;10.40;73.64;98681.24;234469;214;138190;-49
2023/10/24 06:18:06;;;;;;;25.00;16.00;;;;;;;10.43;73.92;98661.71;234638;215;147685;-52
2023/10/24 06:23:10;;;;;;;17.30;11.90;;;;;;;10.40;73.34;98647.38;234414;214;139559;-52
2023/10/24 06:28:13;;;;;;;19.70;11.70;;;;;;;10.36;73.11;98638.39;234395;215;140567;-54
2023/10/24 06:33:17;;;;;;;19.00;11.30;;;;;;;10.36;73.16;98646.77;234518;215;149289;-53
2023/10/24 06:38:21;;;;;;;20.10;12.10;;;;;;;10.40;73.17;98656.73;234482;214;139769;-52
2023/10/24 06:43:26;;;;;;;21.10;12.40;;;;;;;10.42;73.11;98660.16;234473;215;136981;-49
2023/10/24 06:48:31;;;;;;;46.80;29.10;;;;;;;10.42;73.73;98673.31;234503;215;148734;-51
2023/10/24 06:53:34;;;;;;;24.10;13.00;;;;;;;10.48;73.84;98669.19;234618;214;140934;-49
2023/10/24 06:58:37;;;;;;;21.20;11.90;;;;;;;10.50;73.99;98660.49;234361;215;138113;-52
2023/10/24 07:03:40;;;;;;;19.10;11.40;;;;;;;10.54;74.16;98646.04;234191;212;148217;-48
2023/10/24 07:08:46;;;;;;;28.50;11.60;;;;;;;10.60;74.50;98627.71;234463;214;139738;-50
2023/10/24 07:13:49;;;;;;;18.20;10.20;;;;;;;10.70;74.63;98615.73;234391;214;138935;-52
2023/10/24 07:18:53;;;;;;;24.50;17.20;;;;;;;10.86;75.28;98621.51;234598;214;147645;-53
2023/10/24 07:23:56;;;;;;;14.60;10.20;;;;;;;11.01;74.79;98608.93;234532;215;138806;-56
2023/10/24 07:28:59;;;;;;;18.60;10.20;;;;;;;11.04;74.70;98610.08;234499;214;140228;-55
2023/10/24 07:34:02;;;;;;;17.00;10.10;;;;;;;11.10;74.82;98619.06;234445;214;147939;-52
2023/10/24 07:39:06;;;;;;;15.20;9.50;;;;;;;11.18;74.64;98606.26;234363;215;139010;-49
2023/10/24 07:44:11;;;;;;;187.70;142.60;;;;;;;11.20;74.75;98602.42;234477;215;138479;-52
2023/10/24 07:49:15;;;;;;;21.00;14.00;;;;;;;11.28;75.08;98603.61;234528;214;147695;-51
2023/10/24 07:54:18;;;;;;;15.40;10.80;;;;;;;11.36;74.67;98595.23;234561;214;139320;-50
2023/10/24 07:59:22;;;;;;;15.20;10.40;;;;;;;11.42;74.65;98598.88;234617;214;138829;-51
2023/10/24 08:04:26;;;;;;;14.60;10.70;;;;;;;11.47;74.70;98606.66;234455;214;148020;-52
2023/10/24 08:09:30;;;;;;;43.70;32.10;;;;;;;11.54;75.22;98592.96;234197;214;139609;-53
2023/10/24 08:14:33;;;;;;;16.00;11.50;;;;;;;11.69;75.48;98584.41;234448;214;137090;-53
2023/10/24 08:19:36;;;;;;;18.80;11.50;;;;;;;11.73;74.94;98554.10;234556;214;147719;-55
2023/10/24 08:24:40;;;;;;;15.50;10.60;;;;;;;11.76;75.14;98522.63;234446;214;138624;-56
2023/10/24 08:29:43;;;;;;;12.80;9.10;;;;;;;11.88;75.45;98511.57;234617;215;138247;-51
2023/10/24 08:34:46;;;;;;;12.10;9.30;;;;;;;12.04;75.06;98513.62;234353;215;148190;-55
2023/10/24 08:39:49;;;;;;;105.00;80.80;;;;;;;12.15;74.71;98520.40;234527;214;139272;-54
2023/10/24 08:44:53;;;;;;;18.60;11.30;;;;;;;12.28;74.43;98533.58;234268;215;139658;-53
2023/10/24 08:50:01;;;;;;;15.30;11.00;;;;;;;12.30;74.07;98537.70;234163;215;150102;-54
2023/10/24 08:55:05;;;;;;;27.20;21.90;;;;;;;12.34;74.79;98529.21;234478;214;138598;-54
2023/10/24 09:00:13;;;;;;;18.20;10.40;;;;;;;12.46;74.49;98514.84;234632;214;138109;-50
2023/10/24 09:05:17;;;;;;;20.00;10.60;;;;;;;12.51;74.40;98512.80;234630;215;148420;-53
2023/10/24 09:10:20;;;;;;;319.20;230.10;;;;;;;12.56;74.52;98502.98;234420;214;138777;-56
2023/10/24 09:15:24;;;;;;;17.10;12.80;;;;;;;12.69;74.44;98488.07;234448;214;138807;-55
2023/10/24 09:20:30;;;;;;;17.50;10.60;;;;;;;12.74;74.13;98479.84;234316;214;147597;-54
2023/10/24 09:25:33;;;;;;;13.20;9.50;;;;;;;12.78;74.10;98482.91;234371;214;140086;-56
2023/10/24 09:30:39;;;;;;;15.70;10.30;;;;;;;12.82;74.23;98481.48;234419;215;137258;-58
2023/10/24 09:35:43;;;;;;;11.70;10.30;;;;;;;12.90;74.34;98480.82;234565;214;147830;-57
2023/10/24 09:40:56;;;;;;;12.20;8.80;;;;;;;12.97;74.30;98484.38;234043;214;139300;-55
2023/10/24 09:46:01;;;;;;;13.10;9.00;;;;;;;13.02;74.31;98492.55;234394;215;140752;-53
2023/10/24 09:51:06;;;;;;;14.10;8.70;;;;;;;13.12;74.29;98488.67;234465;214;148206;-55
2023/10/24 09:56:10;;;;;;;13.80;9.50;;;;;;;13.30;74.04;98480.12;234338;215;140087;-54
2023/10/24 10:01:13;;;;;;;41.60;27.50;;;;;;;13.47;74.19;98467.34;234413;214;136858;-59
2023/10/24 10:06:17;;;;;;;12.70;9.10;;;;;;;13.64;73.64;98451.48;234421;214;147612;-58
2023/10/24 10:11:36;;;;;;;21.80;15.60;;;;;;;14.10;77.73;98429.36;234496;214;140010;-45
2023/10/24 10:16:55;;;;;;;18.80;11.60;;;;;;;15.60;77.29;98424.73;234450;214;140086;-47
2023/10/24 10:22:01;;;;;;;15.50;11.20;;;;;;;16.55;73.46;98403.91;234167;215;148191;-45
2023/10/24 10:27:30;;;;;;;18.60;10.40;;;;;;;17.05;70.94;98394.77;234400;214;141372;-46
2023/10/24 10:32:49;;;;;;;13.80;9.90;;;;;;;17.24;68.83;98388.52;234364;214;137927;-45
2023/10/24 10:38:13;;;;;;;16.30;9.10;;;;;;;17.31;67.79;98366.77;234246;214;147380;-44
2023/10/24 10:43:35;;;;;;;90.10;68.20;;;;;;;17.33;66.49;98350.51;234131;215;139053;-58
2023/10/24 10:48:38;;;;;;;29.20;21.10;;;;;;;16.99;66.35;98348.65;234112;215;139042;-53
2023/10/24 10:53:47;;;;;;;23.90;13.80;;;;;;;17.43;67.24;98344.88;234402;215;148345;-51
2023/10/24 10:59:02;;;;;;;21.50;14.20;;;;;;;17.89;66.21;98323.67;234275;215;138898;-52
2023/10/24 11:04:13;;;;;;;15.50;9.60;;;;;;;18.14;65.32;98320.65;234149;215;139193;-51
2023/10/24 11:09:20;;;;;;;11.30;7.80;;;;;;;18.31;64.70;98318.55;234214;215;147620;-52
2023/10/24 11:14:23;;;;;;;12.50;7.50;;;;;;;18.51;64.42;98302.59;234235;215;140121;-53
2023/10/24 11:19:28;;;;;;;12.60;8.80;;;;;;;18.56;63.90;98286.09;234082;215;138012;-52
2023/10/24 11:24:31;;;;;;;12.90;8.00;;;;;;;18.57;63.68;98272.15;234234;215;147544;-51
2023/10/24 11:29:34;;;;;;;14.40;8.40;;;;;;;18.60;63.84;98266.91;234561;214;139920;-53
2023/10/24 11:34:38;;;;;;;11.40;7.30;;;;;;;18.72;63.75;98269.00;234400;214;137761;-52
2023/10/24 11:39:42;;;;;;;22.60;16.00;;;;;;;18.74;63.56;98274.30;234364;214;148520;-55
2023/10/24 11:44:45;;;;;;;11.70;7.00;;;;;;;18.86;63.10;98281.30;234231;215;138928;-49
2023/10/24 11:49:48;;;;;;;293.50;251.80;;;;;;;18.72;62.70;98275.88;234307;215;137069;-57
2023/10/24 11:54:52;;;;;;;32.20;22.90;;;;;;;18.61;62.97;98279.08;234147;214;147391;-54
2023/10/24 11:59:57;;;;;;;8.70;6.60;;;;;;;18.59;63.23;98283.11;234450;215;138640;-55
2023/10/24 12:05:01;;;;;;;10.50;6.40;;;;;;;18.39;63.07;98288.46;234465;215;136804;-56
2023/10/24 12:10:09;;;;;;;12.30;6.50;;;;;;;18.18;63.30;98296.27;234417;214;147396;-57
2023/10/24 12:15:15;;;;;;;114.50;95.40;;;;;;;17.99;63.92;98308.42;234246;214;140154;-57
2023/10/24 12:20:20;;;;;;;11.20;7.30;;;;;;;17.95;64.83;98300.80;234413;214;137782;-56
2023/10/24 12:25:23;;;;;;;;;;;;;;;18.06;66.31;98291.77;234471;214;148839;-49
2023/10/24 12:30:28;;;;;;;11.50;6.10;;;;;;;18.41;67.25;98283.36;234483;214;139320;-51
2023/10/24 12:35:31;;;;;;;20.60;11.10;;;;;;;18.61;66.32;98268.12;234481;215;137964;-52
2023/10/24 12:40:34;;;;;;;19.70;12.20;;;;;;;18.73;65.64;98253.92;234422;214;147738;-52
2023/10/24 12:45:38;;;;;;;12.40;7.70;;;;;;;18.85;65.50;98252.45;234387;214;139151;-53
2023/10/24 12:50:41;;;;;;;68.70;54.50;;;;;;;18.87;65.09;98242.38;234414;214;136961;-59
2023/10/24 12:55:44;;;;;;;16.10;8.90;;;;;;;18.73;64.31;98231.47;234130;214;147688;-56
2023/10/24 13:00:48;;;;;;;10.80;7.00;;;;;;;18.56;64.85;98223.21;234228;214;140828;-55
2023/10/24 13:05:51;;;;;;;12.40;7.90;;;;;;;18.39;65.28;98216.98;234575;215;137334;-54
2023/10/24 13:10:55;;;;;;;12.40;8.20;;;;;;;18.21;65.49;98207.07;234372;214;148998;-57
2023/10/24 13:15:58;;;;;;;14.90;9.30;;;;;;;18.06;65.75;98187.46;234261;215;139826;-54
2023/10/24 13:21:02;;;;;;;14.60;8.20;;;;;;;17.93;66.35;98168.04;234317;214;138425;-54
2023/10/24 13:26:05;;;;;;;10.40;6.80;;;;;;;17.87;66.96;98156.07;234368;214;149168;-56
2023/10/24 13:31:08;;;;;;;12.80;7.30;;;;;;;17.86;67.35;98154.75;234368;215;139828;-58
2023/10/24 13:36:18;;;;;;;11.00;7.40;;;;;;;17.88;67.12;98155.30;234370;214;138436;-53
2023/10/24 13:41:28;;;;;;;12.80;7.20;;;;;;;17.84;67.03;98148.39;234417;215;147641;-55
2023/10/24 13:46:32;;;;;;;10.30;7.20;;;;;;;17.74;67.33;98131.10;234376;215;139288;-55
2023/10/24 13:51:35;;;;;;;11.70;7.60;;;;;;;17.61;67.20;98126.33;234448;212;137177;-54
2023/10/24 13:56:39;;;;;;;12.40;8.70;;;;;;;17.48;67.96;98122.89;234454;214;147693;-55
2023/10/24 14:01:43;;;;;;;13.30;7.50;;;;;;;17.39;67.96;98121.36;234437;211;138633;-52
2023/10/24 14:06:46;;;;;;;18.30;13.20;;;;;;;17.25;68.52;98109.86;233765;214;137790;-50
2023/10/24 14:11:49;;;;;;;11.20;9.60;;;;;;;17.08;69.16;98098.40;234629;214;148222;-52
2023/10/24 14:16:53;;;;;;;13.10;9.30;;;;;;;17.00;69.44;98090.63;233932;215;139899;-56
2023/10/24 14:21:58;;;;;;;12.60;10.20;;;;;;;16.96;70.03;98091.72;234363;214;137224;-55
2023/10/24 14:27:02;;;;;;;14.70;11.50;;;;;;;16.95;70.08;98088.40;234346;214;147465;-55
2023/10/24 14:32:05;;;;;;;13.30;10.10;;;;;;;16.94;70.27;98081.95;234369;214;138696;-54
2023/10/24 14:37:09;;;;;;;15.90;10.60;;;;;;;16.85;70.68;98076.73;233959;215;137872;-56
2023/10/24 14:42:12;;;;;;;14.60;10.20;;;;;;;16.80;70.98;98062.98;234567;214;148039;-56
2023/10/24 14:47:15;;;;;;;15.00;10.70;;;;;;;16.71;71.16;98058.98;234356;214;138523;-55
2023/10/24 14:52:19;;;;;;;13.90;9.70;;;;;;;16.64;71.52;98048.67;234413;215;138233;-54
2023/10/24 14:57:22;;;;;;;151.70;109.60;;;;;;;16.56;71.87;98040.99;234369;213;148058;-54
2023/10/24 15:02:26;;;;;;;47.90;34.30;;;;;;;16.62;72.38;98017.79;234379;214;140329;-56
2023/10/24 15:07:29;;;;;;;16.70;11.30;;;;;;;16.67;72.13;98011.80;234357;214;139424;-57
2023/10/24 15:12:32;;;;;;;17.70;11.90;;;;;;;16.62;72.17;97994.08;234512;214;147646;-56
2023/10/24 15:17:36;;;;;;;21.40;11.70;;;;;;;16.54;72.32;97995.41;234527;215;138893;-56
2023/10/24 15:22:40;;;;;;;20.40;11.60;;;;;;;16.45;72.44;98000.96;234435;215;138393;-55
2023/10/24 15:27:43;;;;;;;20.60;11.80;;;;;;;16.33;72.81;97999.52;234016;214;149100;-57
2023/10/24 15:32:47;;;;;;;22.50;10.50;;;;;;;16.22;73.25;97988.11;234348;214;138680;-54
2023/10/24 15:37:51;;;;;;;18.90;11.20;;;;;;;16.14;73.52;97975.81;234333;214;138303;-58
2023/10/24 15:42:54;;;;;;;38.90;31.20;;;;;;;16.12;73.81;97978.20;234522;214;147635;-59
2023/10/24 15:47:58;;;;;;;74.50;53.90;;;;;;;16.17;74.83;97973.08;234450;214;139537;-58
2023/10/24 15:53:02;;;;;;;18.30;12.70;;;;;;;16.24;74.06;97966.29;234379;214;140844;-59
2023/10/24 15:58:05;;;;;;;16.40;11.60;;;;;;;16.15;74.06;97969.00;234168;214;147358;-60
2023/10/24 16:03:09;;;;;;;16.60;11.30;;;;;;;16.04;74.13;97967.27;234343;215;139642;-59
2023/10/24 16:08:12;;;;;;;19.60;11.50;;;;;;;15.94;74.51;97958.00;234456;215;139080;-59
2023/10/24 16:13:15;;;;;;;19.40;11.40;;;;;;;15.90;74.73;97952.57;234402;214;148224;-58
2023/10/24 16:18:20;;;;;;;20.40;12.40;;;;;;;15.90;74.91;97956.20;234363;214;139522;-59
2023/10/24 16:23:23;;;;;;;18.30;12.40;;;;;;;15.92;74.83;97944.47;234535;214;138192;-59
2023/10/24 16:28:27;;;;;;;16.70;12.10;;;;;;;15.90;74.93;97925.71;234406;215;148205;-58
2023/10/24 16:33:31;;;;;;;17.20;12.60;;;;;;;15.85;74.83;97920.65;234226;215;138847;-58
2023/10/24 16:38:34;;;;;;;23.90;12.90;;;;;;;15.78;74.88;97903.61;234243;215;137137;-59
2023/10/24 16:43:38;;;;;;;142.70;108.20;;;;;;;15.70;75.22;97896.04;234364;215;147653;-60
2023/10/24 16:48:41;;;;;;;20.70;14.30;;;;;;;15.69;75.42;97883.48;234298;215;139050;-59
2023/10/24 16:53:44;;;;;;;17.80;12.60;;;;;;;15.68;75.27;97860.76;234544;215;138234;-59
2023/10/24 16:58:47;;;;;;;21.90;14.90;;;;;;;15.65;75.36;97843.13;234354;214;147380;-59
2023/10/24 17:03:52;;;;;;;26.60;14.30;;;;;;;15.67;75.38;97859.95;234288;215;139607;-57
2023/10/24 17:08:56;;;;;;;23.20;14.40;;;;;;;15.63;75.36;97868.30;234294;215;137573;-59
2023/10/24 17:13:59;;;;;;;23.20;14.60;;;;;;;15.58;75.42;97862.39;234370;215;149615;-59
2023/10/24 17:19:04;;;;;;;21.70;13.50;;;;;;;15.47;75.48;97856.90;234404;214;138927;-58
2023/10/24 17:24:09;;;;;;;21.40;13.30;;;;;;;15.43;75.86;97842.54;234524;215;138390;-59
2023/10/24 17:29:12;;;;;;;28.80;14.60;;;;;;;15.45;76.13;97838.02;234060;215;148812;-57
2023/10/24 17:34:15;;;;;;;26.60;14.50;;;;;;;15.50;76.14;97821.56;234339;215;139822;-57
2023/10/24 17:39:19;;;;;;;23.90;14.20;;;;;;;15.54;76.17;97816.17;234388;215;137899;-58
2023/10/24 17:44:22;;;;;;;24.20;14.10;;;;;;;15.56;76.12;97800.26;234443;214;148768;-57
2023/10/24 17:49:25;;;;;;;25.90;15.10;;;;;;;15.55;76.15;97788.70;234314;215;138672;-60
2023/10/24 17:54:28;;;;;;;94.70;66.90;;;;;;;15.60;76.50;97783.51;234368;215;137721;-57
2023/10/24 17:59:32;;;;;;;22.60;14.50;;;;;;;15.71;76.19;97769.91;234070;214;148756;-58
2023/10/24 18:04:35;;;;;;;22.80;13.50;;;;;;;15.69;75.78;97758.48;234417;215;138733;-58
2023/10/24 18:09:38;;;;;;;40.60;28.20;;;;;;;15.69;75.77;97755.48;234399;214;137546;-56
2023/10/24 18:14:41;;;;;;;44.70;31.80;;;;;;;15.71;75.90;97752.21;234380;214;148311;-56
2023/10/24 18:19:45;;;;;;;19.90;12.60;;;;;;;15.67;75.58;97750.11;234145;215;140729;-57
2023/10/24 18:24:48;;;;;;;19.80;12.40;;;;;;;15.61;75.69;97761.98;234407;215;138065;-58
2023/10/24 18:29:52;;;;;;;20.30;11.50;;;;;;;15.56;76.03;97760.51;234395;215;148356;-57
2023/10/24 18:34:56;;;;;;;25.70;16.80;;;;;;;15.55;75.94;97742.44;233860;215;140742;-57
2023/10/24 18:39:59;;;;;;;19.90;12.40;;;;;;;15.54;76.11;97724.43;234386;215;138703;-56
2023/10/24 18:45:03;;;;;;;17.80;11.60;;;;;;;15.57;76.14;97729.65;234500;214;148324;-57
2023/10/24 18:50:09;;;;;;;19.70;11.00;;;;;;;15.57;76.24;97735.04;234431;214;138635;-57
2023/10/24 18:55:13;;;;;;;;;;;;;;;15.55;76.34;97737.44;234397;214;138605;-56
2023/10/24 19:00:17;;;;;;;15.60;10.30;;;;;;;15.49;76.39;97737.27;234510;214;148268;-56
2023/10/24 19:05:21;;;;;;;15.10;9.50;;;;;;;15.44;76.61;97740.91;234180;214;139080;-58
2023/10/24 19:10:25;;;;;;;16.00;9.60;;;;;;;15.42;76.83;97738.20;234063;214;138575;-59
2023/10/24 19:15:28;;;;;;;20.30;10.10;;;;;;;15.46;76.95;97734.88;234216;214;149407;-59
2023/10/24 19:20:32;;;;;;;15.50;9.90;;;;;;;15.56;76.96;97734.76;234113;214;139579;-55
2023/10/24 19:25:38;;;;;;;15.70;9.80;;;;;;;15.64;76.57;97734.74;233936;214;138405;-58
2023/10/24 19:30:42;;;;;;;17.20;10.30;;;;;;;15.62;76.50;97732.59;234336;215;148498;-59
2023/10/24 19:35:48;;;;;;;15.70;9.50;;;;;;;15.56;76.64;97738.36;234397;214;139516;-58
2023/10/24 19:40:51;;;;;;;16.90;9.90;;;;;;;15.63;76.76;97740.89;234171;214;137816;-58
2023/10/24 19:46:02;;;;;;;19.30;11.20;;;;;;;15.67;76.61;97739.58;234504;214;147696;-59
2023/10/24 19:51:07;;;;;;;21.00;12.30;;;;;;;15.70;76.91;97728.17;233932;214;141193;-59
2023/10/24 19:56:12;;;;;;;25.40;12.10;;;;;;;15.62;77.23;97722.84;234399;215;138194;-58
2023/10/24 20:01:16;;;;;;;21.70;12.50;;;;;;;15.54;77.59;97708.48;234350;214;148196;-59
2023/10/24 20:06:21;;;;;;;15.80;11.90;;;;;;;15.46;77.94;97701.18;234191;214;139527;-59
2023/10/24 20:11:24;;;;;;;18.20;12.10;;;;;;;15.42;78.33;97685.48;234614;214;137804;-59
2023/10/24 20:16:54;;;;;;;18.10;11.80;;;;;;;15.43;78.57;97675.98;234456;214;147646;-60
2023/10/24 20:21:58;;;;;;;18.00;11.50;;;;;;;15.44;78.61;97684.89;234330;215;140136;-59
2023/10/24 20:27:03;;;;;;;18.10;11.60;;;;;;;15.49;78.66;97685.31;234406;214;138541;-58
2023/10/24 20:32:07;;;;;;;20.00;13.00;;;;;;;15.50;78.64;97690.95;234409;214;149228;-59
2023/10/24 20:37:10;;;;;;;16.70;12.00;;;;;;;15.56;78.48;97692.40;234410;214;140082;-59
2023/10/24 20:42:13;;;;;;;19.50;12.40;;;;;;;15.57;78.59;97688.58;234276;215;137975;-58
2023/10/24 20:47:16;;;;;;;21.30;12.50;;;;;;;15.60;78.57;97686.62;233956;214;148579;-57
2023/10/24 20:52:20;;;;;;;20.10;12.80;;;;;;;15.52;78.67;97674.94;234428;214;140373;-57
2023/10/24 20:57:23;;;;;;;18.30;12.70;;;;;;;15.42;79.04;97671.54;234505;215;137916;-57
2023/10/24 21:02:26;;;;;;;17.10;11.30;;;;;;;15.45;79.37;97667.30;234400;214;148448;-57
2023/10/24 21:07:30;;;;;;;19.30;10.40;;;;;;;15.47;79.44;97662.79;234405;214;138624;-57
2023/10/24 21:12:33;;;;;;;20.00;11.40;;;;;;;15.55;79.58;97662.63;234140;215;137805;-57
2023/10/24 21:17:36;;;;;;;18.20;12.00;;;;;;;15.65;79.51;97656.23;234527;215;149074;-56
2023/10/24 21:22:40;;;;;;;22.60;11.80;;;;;;;15.70;79.21;97647.67;233569;214;139178;-57
2023/10/24 21:27:43;;;;;;;18.40;10.60;;;;;;;15.69;79.21;97636.61;234335;215;138232;-56
2023/10/24 21:32:46;;;;;;;20.40;10.30;;;;;;;15.68;79.18;97626.88;234170;215;147536;-56
2023/10/24 21:37:49;;;;;;;21.40;10.70;;;;;;;15.70;79.22;97617.43;234400;215;139456;-56
2023/10/24 21:42:52;;;;;;;21.70;11.90;;;;;;;15.74;79.36;97607.98;234222;215;138451;-56
2023/10/24 21:47:56;;;;;;;24.40;12.90;;;;;;;15.72;79.14;97597.44;234522;214;148222;-54
2023/10/24 21:52:59;;;;;;;22.00;12.10;;;;;;;15.58;79.24;97590.08;234332;215;139748;-56
2023/10/24 21:58:02;;;;;;;20.00;12.00;;;;;;;15.49;79.71;97579.34;234052;215;138412;-57
2023/10/24 22:03:05;;;;;;;26.70;13.80;;;;;;;15.45;79.88;97573.67;234297;215;148102;-55
2023/10/24 22:08:10;;;;;;;26.20;17.10;;;;;;;15.45;80.13;97568.71;234308;215;140847;-57
2023/10/24 22:13:13;;;;;;;36.00;18.90;;;;;;;15.47;80.06;97561.10;234465;215;137669;-55
2023/10/24 22:18:17;;;;;;;28.20;16.90;;;;;;;15.41;80.20;97554.07;234296;215;149358;-57
2023/10/24 22:23:20;;;;;;;26.30;15.70;;;;;;;15.43;80.52;97544.67;234056;214;138981;-57
2023/10/24 22:28:24;;;;;;;25.70;16.90;;;;;;;15.44;80.21;97545.48;234312;214;138104;-57
2023/10/24 22:33:27;;;;;;;25.90;16.20;;;;;;;15.46;80.19;97534.90;234475;215;148249;-57
2023/10/24 22:38:30;;;;;;;27.20;14.60;;;;;;;15.42;80.17;97532.27;233981;214;138727;-57
2023/10/24 22:43:34;;;;;;;18.20;12.00;;;;;;;15.36;80.27;97522.88;234110;214;139729;-56
2023/10/24 22:48:37;;;;;;;22.10;12.20;;;;;;;15.37;80.47;97517.98;234478;214;148932;-56
2023/10/24 22:53:41;;;;;;;26.80;12.90;;;;;;;15.40;80.55;97511.92;234582;215;138864;-55
2023/10/24 22:58:44;;;;;;;27.00;12.90;;;;;;;15.44;80.55;97501.67;234487;214;139695;-55
2023/10/24 23:03:47;;;;;;;27.20;13.90;;;;;;;15.50;80.52;97502.86;234466;214;148292;-56
2023/10/24 23:08:51;;;;;;;23.80;11.70;;;;;;;15.50;80.55;97496.20;234355;214;139862;-57